Lompoc/Vandenberg AFB, California
Current Conditions -  °F | °C
As of 8:55 PM on Monday 20 Oct 2014 (Local Time) from KVBG Reporting Station
Scattered Clouds Scattered Clouds  
Wind Chill: 63°   Ceiling: Unl
Heat Index: 63°   Visibility: 10mi
Dew Point: 59°   Wind: 15mph
Humidity: 87%   Direction: 330°NNW
Pressure: 29.99"   Gusts: NA
Location:  34.75°N, 120.57°W
Report Text: KVBG 210355Z AUTO 33013KT 10SM SCT016 17/15 A2999 RMK AO2 SLP144 T01720150 TSNO $
Loading
Personal Weather Stations






























Interactive Weather Map
Tropical Storm Tracking
New forecast layout! Learn more

10-Day Weather Forecast

Advertisements
Track Severe Weather on mobile